map of NZPG home
NZPG - Airport
Location
City:  McMurdo Station, Ross Island, Antarctica
Name:Pegasus Field
ICAO:NZPG

Details
Type:Airport (Aerodrome, Airfield)
Latitude:7757'48"S (-77.963440)
Longitude:16631'29"E (166.524609)
Datum:other
Elevation:18 ft (5 m)
Variation:142.69E (WMM2015 magnetic declination)
-0.20 annual change
Runways:1
Longest:10000 × 220 ft (3048 × 67 m)

Time
Time Zone:UTC+12 (DST+13)
Local Time:

Weather
METAR:NZPG 072155Z 02007KT 9999 FEW040 SCT060 BKN080 M08/M13 A2936 RMK SLP945 LSR11 GRID19007KT SDF/HDG HDF GRID S-W

Related Locations
Nearby:
Farthest:BGNO: 12174 mi / 19592 km
Nord [Station Nord], NEG, GL

Find:

   beyond  
but within

Other Information
Maps:
NOTAMs:
Links:
Sources:

  

Sectional Chart

Flight Planning
at skyvector.com

Satellite Image

Google Maps Satellite view

 

Copyright © 2004-2016 Karl L. Swartz. All rights reserved.
The Great Circle Mapper name and logo are trademarks of the Great Circle Mapper.
All other trademarks mentioned herein belong to their respective owners.
Please see credits for attibutions and further copyright information.

  Follow gcmap on Facebook Follow gcmap on Twitter Follow gcmap on Google+ GCmap on LinkedIn

hCard Microformat

Geo Microformat